sensor_id;sensor_type;location;lat;lon;timestamp;P1;durP1;ratioP1;P2;durP2;ratioP2
9422;SDS011;65863;49.506;10.400;2023-01-05T00:00:36;1.33;;;0.90;;
9422;SDS011;65863;49.506;10.400;2023-01-05T00:03:20;1.63;;;1.00;;
9422;SDS011;65863;49.506;10.400;2023-01-05T00:06:12;0.97;;;0.70;;
9422;SDS011;65863;49.506;10.400;2023-01-05T00:08:58;1.47;;;1.00;;
9422;SDS011;65863;49.506;10.400;2023-01-05T00:11:43;1.20;;;1.00;;
9422;SDS011;65863;49.506;10.400;2023-01-05T00:14:46;0.90;;;0.90;;
9422;SDS011;65863;49.506;10.400;2023-01-05T00:17:50;1.07;;;0.93;;
9422;SDS011;65863;49.506;10.400;2023-01-05T00:20:53;1.17;;;0.90;;
9422;SDS011;65863;49.506;10.400;2023-01-05T00:23:56;1.20;;;1.00;;
9422;SDS011;65863;49.506;10.400;2023-01-05T00:26:40;0.90;;;0.90;;
9422;SDS011;65863;49.506;10.400;2023-01-05T00:29:24;0.80;;;0.80;;
9422;SDS011;65863;49.506;10.400;2023-01-05T00:32:08;0.73;;;0.73;;
9422;SDS011;65863;49.506;10.400;2023-01-05T00:34:55;0.70;;;0.70;;
9422;SDS011;65863;49.506;10.400;2023-01-05T00:37:40;0.73;;;0.73;;
9422;SDS011;65863;49.506;10.400;2023-01-05T00:40:26;0.57;;;0.57;;
9422;SDS011;65863;49.506;10.400;2023-01-05T00:43:10;0.80;;;0.80;;
9422;SDS011;65863;49.506;10.400;2023-01-05T00:45:54;0.47;;;0.47;;
9422;SDS011;65863;49.506;10.400;2023-01-05T00:48:38;1.33;;;0.57;;
9422;SDS011;65863;49.506;10.400;2023-01-05T00:51:22;0.53;;;0.53;;
9422;SDS011;65863;49.506;10.400;2023-01-05T00:54:06;1.10;;;0.73;;
9422;SDS011;65863;49.506;10.400;2023-01-05T00:56:50;0.77;;;0.50;;
9422;SDS011;65863;49.506;10.400;2023-01-05T00:59:35;0.83;;;0.67;;
9422;SDS011;65863;49.506;10.400;2023-01-05T01:02:19;0.50;;;0.50;;
9422;SDS011;65863;49.506;10.400;2023-01-05T01:05:04;0.67;;;0.43;;
9422;SDS011;65863;49.506;10.400;2023-01-05T01:07:48;0.50;;;0.50;;
9422;SDS011;65863;49.506;10.400;2023-01-05T01:10:33;0.50;;;0.50;;
9422;SDS011;65863;49.506;10.400;2023-01-05T01:13:16;0.53;;;0.53;;
9422;SDS011;65863;49.506;10.400;2023-01-05T01:16:04;0.60;;;0.60;;
9422;SDS011;65863;49.506;10.400;2023-01-05T01:18:57;0.40;;;0.40;;
9422;SDS011;65863;49.506;10.400;2023-01-05T01:21:42;0.57;;;0.57;;
9422;SDS011;65863;49.506;10.400;2023-01-05T01:24:26;0.70;;;0.70;;
9422;SDS011;65863;49.506;10.400;2023-01-05T01:27:10;0.50;;;0.50;;
9422;SDS011;65863;49.506;10.400;2023-01-05T01:29:56;3.40;;;0.60;;
9422;SDS011;65863;49.506;10.400;2023-01-05T01:32:40;0.50;;;0.50;;
9422;SDS011;65863;49.506;10.400;2023-01-05T01:35:24;0.50;;;0.50;;
9422;SDS011;65863;49.506;10.400;2023-01-05T01:38:08;0.40;;;0.40;;
9422;SDS011;65863;49.506;10.400;2023-01-05T01:41:01;1.70;;;0.53;;
9422;SDS011;65863;49.506;10.400;2023-01-05T01:43:50;0.60;;;0.60;;
9422;SDS011;65863;49.506;10.400;2023-01-05T01:46:37;2.00;;;0.50;;
9422;SDS011;65863;49.506;10.400;2023-01-05T01:49:21;1.20;;;0.50;;
9422;SDS011;65863;49.506;10.400;2023-01-05T01:52:05;1.23;;;0.50;;
9422;SDS011;65863;49.506;10.400;2023-01-05T01:54:50;0.50;;;0.40;;
9422;SDS011;65863;49.506;10.400;2023-01-05T01:57:35;1.80;;;0.83;;
9422;SDS011;65863;49.506;10.400;2023-01-05T02:00:21;0.40;;;0.40;;
9422;SDS011;65863;49.506;10.400;2023-01-05T02:03:08;0.87;;;0.73;;
9422;SDS011;65863;49.506;10.400;2023-01-05T02:05:53;0.47;;;0.47;;
9422;SDS011;65863;49.506;10.400;2023-01-05T02:08:37;0.50;;;0.50;;
9422;SDS011;65863;49.506;10.400;2023-01-05T02:14:53;0.57;;;0.57;;
9422;SDS011;65863;49.506;10.400;2023-01-05T02:18:01;0.40;;;0.40;;
9422;SDS011;65863;49.506;10.400;2023-01-05T02:24:00;0.60;;;0.60;;
9422;SDS011;65863;49.506;10.400;2023-01-05T02:27:24;0.40;;;0.40;;
9422;SDS011;65863;49.506;10.400;2023-01-05T02:33:15;0.57;;;0.57;;
9422;SDS011;65863;49.506;10.400;2023-01-05T02:36:24;1.33;;;0.50;;
9422;SDS011;65863;49.506;10.400;2023-01-05T02:42:03;0.30;;;0.30;;
9422;SDS011;65863;49.506;10.400;2023-01-05T02:44:53;0.77;;;0.63;;
9422;SDS011;65863;49.506;10.400;2023-01-05T02:47:38;0.50;;;0.50;;
9422;SDS011;65863;49.506;10.400;2023-01-05T02:51:12;0.77;;;0.77;;
9422;SDS011;65863;49.506;10.400;2023-01-05T02:53:48;0.60;;;0.60;;
9422;SDS011;65863;49.506;10.400;2023-01-05T02:56:41;0.50;;;0.50;;
9422;SDS011;65863;49.506;10.400;2023-01-05T02:59:49;0.60;;;0.60;;
9422;SDS011;65863;49.506;10.400;2023-01-05T03:02:37;0.50;;;0.43;;
9422;SDS011;65863;49.506;10.400;2023-01-05T03:05:25;0.50;;;0.50;;
9422;SDS011;65863;49.506;10.400;2023-01-05T03:08:15;1.50;;;0.60;;
9422;SDS011;65863;49.506;10.400;2023-01-05T03:11:07;0.40;;;0.40;;
9422;SDS011;65863;49.506;10.400;2023-01-05T03:14:15;0.53;;;0.53;;
9422;SDS011;65863;49.506;10.400;2023-01-05T03:17:07;1.33;;;0.80;;
9422;SDS011;65863;49.506;10.400;2023-01-05T03:19:59;0.63;;;0.63;;
9422;SDS011;65863;49.506;10.400;2023-01-05T03:22:45;0.53;;;0.53;;
9422;SDS011;65863;49.506;10.400;2023-01-05T03:25:50;0.60;;;0.60;;
9422;SDS011;65863;49.506;10.400;2023-01-05T03:28:56;0.50;;;0.50;;
9422;SDS011;65863;49.506;10.400;2023-01-05T03:32:18;0.50;;;0.50;;
9422;SDS011;65863;49.506;10.400;2023-01-05T03:35:26;0.40;;;0.40;;
9422;SDS011;65863;49.506;10.400;2023-01-05T03:41:12;0.50;;;0.50;;
9422;SDS011;65863;49.506;10.400;2023-01-05T03:43:59;0.60;;;0.60;;
9422;SDS011;65863;49.506;10.400;2023-01-05T03:46:44;0.90;;;0.90;;
9422;SDS011;65863;49.506;10.400;2023-01-05T03:49:28;0.83;;;0.40;;
9422;SDS011;65863;49.506;10.400;2023-01-05T03:52:15;0.40;;;0.40;;
9422;SDS011;65863;49.506;10.400;2023-01-05T03:54:59;0.50;;;0.50;;
9422;SDS011;65863;49.506;10.400;2023-01-05T03:57:44;0.53;;;0.40;;
9422;SDS011;65863;49.506;10.400;2023-01-05T04:00:28;0.50;;;0.50;;
9422;SDS011;65863;49.506;10.400;2023-01-05T04:03:19;0.70;;;0.70;;
9422;SDS011;65863;49.506;10.400;2023-01-05T04:06:03;0.30;;;0.30;;
9422;SDS011;65863;49.506;10.400;2023-01-05T04:08:50;0.60;;;0.60;;
9422;SDS011;65863;49.506;10.400;2023-01-05T04:11:35;0.30;;;0.30;;
9422;SDS011;65863;49.506;10.400;2023-01-05T04:14:23;0.30;;;0.30;;
9422;SDS011;65863;49.506;10.400;2023-01-05T04:17:07;0.50;;;0.50;;
9422;SDS011;65863;49.506;10.400;2023-01-05T04:19:51;0.67;;;0.67;;
9422;SDS011;65863;49.506;10.400;2023-01-05T04:22:36;0.50;;;0.50;;
9422;SDS011;65863;49.506;10.400;2023-01-05T04:25:20;0.53;;;0.53;;
9422;SDS011;65863;49.506;10.400;2023-01-05T04:28:04;0.60;;;0.60;;
9422;SDS011;65863;49.506;10.400;2023-01-05T04:30:51;0.53;;;0.53;;
9422;SDS011;65863;49.506;10.400;2023-01-05T04:33:38;0.60;;;0.60;;
9422;SDS011;65863;49.506;10.400;2023-01-05T04:36:24;0.60;;;0.60;;
9422;SDS011;65863;49.506;10.400;2023-01-05T04:39:12;0.50;;;0.50;;
9422;SDS011;65863;49.506;10.400;2023-01-05T04:41:57;0.70;;;0.70;;
9422;SDS011;65863;49.506;10.400;2023-01-05T04:44:41;1.63;;;1.00;;
9422;SDS011;65863;49.506;10.400;2023-01-05T04:47:25;0.60;;;0.60;;
9422;SDS011;65863;49.506;10.400;2023-01-05T04:50:09;0.60;;;0.60;;
9422;SDS011;65863;49.506;10.400;2023-01-05T04:52:55;1.63;;;0.80;;
9422;SDS011;65863;49.506;10.400;2023-01-05T04:55:39;1.13;;;0.77;;
9422;SDS011;65863;49.506;10.400;2023-01-05T04:58:23;0.50;;;0.50;;
9422;SDS011;65863;49.506;10.400;2023-01-05T05:01:10;0.80;;;0.80;;
9422;SDS011;65863;49.506;10.400;2023-01-05T05:03:57;0.93;;;0.80;;
9422;SDS011;65863;49.506;10.400;2023-01-05T05:06:42;0.77;;;0.77;;
9422;SDS011;65863;49.506;10.400;2023-01-05T05:09:26;0.77;;;0.77;;
9422;SDS011;65863;49.506;10.400;2023-01-05T05:12:11;0.70;;;0.70;;
9422;SDS011;65863;49.506;10.400;2023-01-05T05:14:56;2.10;;;0.90;;
9422;SDS011;65863;49.506;10.400;2023-01-05T05:17:41;0.80;;;0.70;;
9422;SDS011;65863;49.506;10.400;2023-01-05T05:20:29;0.77;;;0.70;;
9422;SDS011;65863;49.506;10.400;2023-01-05T05:23:13;1.80;;;0.70;;
9422;SDS011;65863;49.506;10.400;2023-01-05T05:25:57;0.70;;;0.70;;
9422;SDS011;65863;49.506;10.400;2023-01-05T05:28:42;0.40;;;0.40;;
9422;SDS011;65863;49.506;10.400;2023-01-05T05:31:26;0.50;;;0.50;;
9422;SDS011;65863;49.506;10.400;2023-01-05T05:34:10;1.07;;;0.70;;
9422;SDS011;65863;49.506;10.400;2023-01-05T05:36:54;1.40;;;0.77;;
9422;SDS011;65863;49.506;10.400;2023-01-05T05:39:38;6.43;;;1.20;;
9422;SDS011;65863;49.506;10.400;2023-01-05T05:42:22;4.10;;;1.30;;
9422;SDS011;65863;49.506;10.400;2023-01-05T05:45:07;4.40;;;1.70;;
9422;SDS011;65863;49.506;10.400;2023-01-05T05:47:51;4.70;;;1.13;;
9422;SDS011;65863;49.506;10.400;2023-01-05T05:50:35;6.33;;;1.77;;
9422;SDS011;65863;49.506;10.400;2023-01-05T05:53:22;3.17;;;1.50;;
9422;SDS011;65863;49.506;10.400;2023-01-05T05:56:07;9.10;;;1.93;;
9422;SDS011;65863;49.506;10.400;2023-01-05T05:58:51;8.67;;;1.80;;
9422;SDS011;65863;49.506;10.400;2023-01-05T06:04:45;14.07;;;2.43;;
9422;SDS011;65863;49.506;10.400;2023-01-05T06:07:29;8.60;;;1.97;;
9422;SDS011;65863;49.506;10.400;2023-01-05T06:10:13;12.37;;;2.40;;
9422;SDS011;65863;49.506;10.400;2023-01-05T06:12:57;8.77;;;1.87;;
9422;SDS011;65863;49.506;10.400;2023-01-05T06:15:41;9.17;;;2.43;;
9422;SDS011;65863;49.506;10.400;2023-01-05T06:18:26;8.67;;;2.00;;
9422;SDS011;65863;49.506;10.400;2023-01-05T06:21:11;7.63;;;2.07;;
9422;SDS011;65863;49.506;10.400;2023-01-05T06:23:55;9.50;;;2.00;;
9422;SDS011;65863;49.506;10.400;2023-01-05T06:26:39;8.17;;;1.80;;
9422;SDS011;65863;49.506;10.400;2023-01-05T06:29:23;3.90;;;1.57;;
9422;SDS011;65863;49.506;10.400;2023-01-05T06:32:19;8.20;;;1.87;;
9422;SDS011;65863;49.506;10.400;2023-01-05T06:35:03;9.97;;;2.10;;
9422;SDS011;65863;49.506;10.400;2023-01-05T06:37:47;9.90;;;2.80;;
9422;SDS011;65863;49.506;10.400;2023-01-05T06:40:31;9.83;;;2.47;;
9422;SDS011;65863;49.506;10.400;2023-01-05T06:43:15;6.87;;;1.83;;
9422;SDS011;65863;49.506;10.400;2023-01-05T06:45:59;5.63;;;1.90;;
9422;SDS011;65863;49.506;10.400;2023-01-05T06:48:43;6.33;;;1.93;;
9422;SDS011;65863;49.506;10.400;2023-01-05T06:51:27;6.03;;;1.67;;
9422;SDS011;65863;49.506;10.400;2023-01-05T06:54:11;11.87;;;2.40;;
9422;SDS011;65863;49.506;10.400;2023-01-05T06:56:55;6.87;;;2.43;;
9422;SDS011;65863;49.506;10.400;2023-01-05T06:59:39;10.37;;;2.43;;
9422;SDS011;65863;49.506;10.400;2023-01-05T07:02:23;9.07;;;2.07;;
9422;SDS011;65863;49.506;10.400;2023-01-05T07:05:07;7.33;;;1.67;;
9422;SDS011;65863;49.506;10.400;2023-01-05T07:07:52;8.30;;;1.70;;
9422;SDS011;65863;49.506;10.400;2023-01-05T07:10:36;9.10;;;1.70;;
9422;SDS011;65863;49.506;10.400;2023-01-05T07:13:20;9.17;;;2.10;;
9422;SDS011;65863;49.506;10.400;2023-01-05T07:16:04;6.23;;;1.60;;
9422;SDS011;65863;49.506;10.400;2023-01-05T07:18:48;6.83;;;1.60;;
9422;SDS011;65863;49.506;10.400;2023-01-05T07:21:32;8.83;;;2.27;;
9422;SDS011;65863;49.506;10.400;2023-01-05T07:24:16;7.20;;;1.80;;
9422;SDS011;65863;49.506;10.400;2023-01-05T07:27:00;6.67;;;1.93;;
9422;SDS011;65863;49.506;10.400;2023-01-05T07:29:44;8.50;;;2.73;;
9422;SDS011;65863;49.506;10.400;2023-01-05T07:32:27;5.33;;;1.63;;
9422;SDS011;65863;49.506;10.400;2023-01-05T07:35:12;3.43;;;1.50;;
9422;SDS011;65863;49.506;10.400;2023-01-05T07:37:55;6.90;;;1.90;;
9422;SDS011;65863;49.506;10.400;2023-01-05T07:40:40;8.93;;;1.80;;
9422;SDS011;65863;49.506;10.400;2023-01-05T07:43:24;10.90;;;2.50;;
9422;SDS011;65863;49.506;10.400;2023-01-05T07:46:08;6.17;;;1.90;;
9422;SDS011;65863;49.506;10.400;2023-01-05T07:48:52;8.87;;;1.70;;
9422;SDS011;65863;49.506;10.400;2023-01-05T07:51:37;6.87;;;2.00;;
9422;SDS011;65863;49.506;10.400;2023-01-05T07:54:21;5.40;;;1.60;;
9422;SDS011;65863;49.506;10.400;2023-01-05T07:57:04;7.27;;;1.60;;
9422;SDS011;65863;49.506;10.400;2023-01-05T07:59:49;5.03;;;2.20;;
9422;SDS011;65863;49.506;10.400;2023-01-05T08:02:33;10.30;;;2.60;;
9422;SDS011;65863;49.506;10.400;2023-01-05T08:05:17;8.47;;;1.70;;
9422;SDS011;65863;49.506;10.400;2023-01-05T08:08:00;5.77;;;2.33;;
9422;SDS011;65863;49.506;10.400;2023-01-05T08:11:04;7.77;;;2.20;;
9422;SDS011;65863;49.506;10.400;2023-01-05T08:13:49;6.47;;;2.00;;
9422;SDS011;65863;49.506;10.400;2023-01-05T08:16:42;5.20;;;2.00;;
9422;SDS011;65863;49.506;10.400;2023-01-05T08:19:32;8.07;;;2.93;;
9422;SDS011;65863;49.506;10.400;2023-01-05T08:22:16;10.53;;;2.57;;
9422;SDS011;65863;49.506;10.400;2023-01-05T08:25:03;7.87;;;2.53;;
9422;SDS011;65863;49.506;10.400;2023-01-05T08:27:51;5.93;;;2.57;;
9422;SDS011;65863;49.506;10.400;2023-01-05T08:30:35;8.40;;;3.53;;
9422;SDS011;65863;49.506;10.400;2023-01-05T08:33:25;6.00;;;1.70;;
9422;SDS011;65863;49.506;10.400;2023-01-05T08:36:11;6.67;;;2.50;;
9422;SDS011;65863;49.506;10.400;2023-01-05T08:39:04;4.10;;;1.50;;
9422;SDS011;65863;49.506;10.400;2023-01-05T08:42:00;5.23;;;1.80;;
9422;SDS011;65863;49.506;10.400;2023-01-05T08:44:45;6.83;;;1.83;;
9422;SDS011;65863;49.506;10.400;2023-01-05T08:47:30;5.50;;;1.90;;
9422;SDS011;65863;49.506;10.400;2023-01-05T08:50:17;9.20;;;2.27;;
9422;SDS011;65863;49.506;10.400;2023-01-05T08:53:01;9.07;;;2.40;;
9422;SDS011;65863;49.506;10.400;2023-01-05T08:55:45;4.47;;;1.40;;
9422;SDS011;65863;49.506;10.400;2023-01-05T08:58:31;5.37;;;1.50;;
9422;SDS011;65863;49.506;10.400;2023-01-05T09:01:16;8.20;;;2.20;;
9422;SDS011;65863;49.506;10.400;2023-01-05T09:04:01;8.67;;;1.70;;
9422;SDS011;65863;49.506;10.400;2023-01-05T09:06:45;5.73;;;1.90;;
9422;SDS011;65863;49.506;10.400;2023-01-05T09:09:30;5.97;;;1.67;;
9422;SDS011;65863;49.506;10.400;2023-01-05T09:12:14;5.27;;;1.70;;
9422;SDS011;65863;49.506;10.400;2023-01-05T09:14:58;6.10;;;1.87;;
9422;SDS011;65863;49.506;10.400;2023-01-05T09:17:42;8.00;;;2.17;;
9422;SDS011;65863;49.506;10.400;2023-01-05T09:20:26;7.60;;;1.57;;
9422;SDS011;65863;49.506;10.400;2023-01-05T09:23:10;8.60;;;2.17;;
9422;SDS011;65863;49.506;10.400;2023-01-05T09:25:54;8.87;;;2.23;;
9422;SDS011;65863;49.506;10.400;2023-01-05T09:28:38;5.13;;;1.60;;
9422;SDS011;65863;49.506;10.400;2023-01-05T09:31:22;3.27;;;1.33;;
9422;SDS011;65863;49.506;10.400;2023-01-05T09:34:06;7.60;;;2.17;;
9422;SDS011;65863;49.506;10.400;2023-01-05T09:36:51;6.83;;;2.13;;
9422;SDS011;65863;49.506;10.400;2023-01-05T09:39:35;5.80;;;2.20;;
9422;SDS011;65863;49.506;10.400;2023-01-05T09:42:19;4.33;;;1.67;;
9422;SDS011;65863;49.506;10.400;2023-01-05T09:45:06;5.30;;;1.33;;
9422;SDS011;65863;49.506;10.400;2023-01-05T09:47:50;7.27;;;1.80;;
9422;SDS011;65863;49.506;10.400;2023-01-05T09:50:36;5.63;;;1.60;;
9422;SDS011;65863;49.506;10.400;2023-01-05T09:53:23;6.80;;;1.77;;
9422;SDS011;65863;49.506;10.400;2023-01-05T09:56:26;8.83;;;2.13;;
9422;SDS011;65863;49.506;10.400;2023-01-05T09:59:13;5.60;;;1.73;;
9422;SDS011;65863;49.506;10.400;2023-01-05T10:02:13;5.37;;;1.60;;
9422;SDS011;65863;49.506;10.400;2023-01-05T10:05:02;7.77;;;2.03;;
9422;SDS011;65863;49.506;10.400;2023-01-05T10:07:52;6.17;;;1.50;;
9422;SDS011;65863;49.506;10.400;2023-01-05T10:10:46;8.90;;;2.03;;
9422;SDS011;65863;49.506;10.400;2023-01-05T10:14:01;7.73;;;2.00;;
9422;SDS011;65863;49.506;10.400;2023-01-05T10:16:49;5.63;;;1.70;;
9422;SDS011;65863;49.506;10.400;2023-01-05T10:19:34;4.37;;;2.03;;
9422;SDS011;65863;49.506;10.400;2023-01-05T10:31:38;5.33;;;1.70;;
9422;SDS011;65863;49.506;10.400;2023-01-05T10:46:17;8.03;;;1.93;;
9422;SDS011;65863;49.506;10.400;2023-01-05T10:49:01;11.23;;;4.50;;
9422;SDS011;65863;49.506;10.400;2023-01-05T10:51:49;8.63;;;2.03;;
9422;SDS011;65863;49.506;10.400;2023-01-05T10:57:39;6.07;;;1.73;;
9422;SDS011;65863;49.506;10.400;2023-01-05T11:00:37;6.83;;;2.17;;
9422;SDS011;65863;49.506;10.400;2023-01-05T11:03:33;8.27;;;2.03;;
9422;SDS011;65863;49.506;10.400;2023-01-05T11:06:23;8.50;;;2.60;;
9422;SDS011;65863;49.506;10.400;2023-01-05T11:09:17;5.37;;;1.90;;
9422;SDS011;65863;49.506;10.400;2023-01-05T11:12:05;6.67;;;2.03;;
9422;SDS011;65863;49.506;10.400;2023-01-05T11:15:01;7.57;;;2.07;;
9422;SDS011;65863;49.506;10.400;2023-01-05T11:17:44;6.37;;;2.00;;
9422;SDS011;65863;49.506;10.400;2023-01-05T11:20:29;9.03;;;1.90;;
9422;SDS011;65863;49.506;10.400;2023-01-05T11:23:32;8.07;;;2.33;;
9422;SDS011;65863;49.506;10.400;2023-01-05T11:26:39;6.07;;;1.77;;
9422;SDS011;65863;49.506;10.400;2023-01-05T11:29:31;8.77;;;2.33;;
9422;SDS011;65863;49.506;10.400;2023-01-05T11:32:15;8.90;;;2.50;;
9422;SDS011;65863;49.506;10.400;2023-01-05T11:35:00;7.43;;;1.60;;
9422;SDS011;65863;49.506;10.400;2023-01-05T11:37:44;7.30;;;2.33;;
9422;SDS011;65863;49.506;10.400;2023-01-05T11:40:32;4.67;;;1.70;;
9422;SDS011;65863;49.506;10.400;2023-01-05T11:43:18;4.07;;;1.40;;
9422;SDS011;65863;49.506;10.400;2023-01-05T11:46:04;6.83;;;1.97;;
9422;SDS011;65863;49.506;10.400;2023-01-05T11:48:52;9.53;;;2.30;;
9422;SDS011;65863;49.506;10.400;2023-01-05T11:51:39;8.57;;;2.00;;
9422;SDS011;65863;49.506;10.400;2023-01-05T11:54:36;6.37;;;1.87;;
9422;SDS011;65863;49.506;10.400;2023-01-05T11:57:21;6.13;;;1.93;;
9422;SDS011;65863;49.506;10.400;2023-01-05T12:00:23;10.13;;;2.30;;
9422;SDS011;65863;49.506;10.400;2023-01-05T12:09:51;10.63;;;2.67;;
9422;SDS011;65863;49.506;10.400;2023-01-05T12:16:14;9.03;;;2.10;;
9422;SDS011;65863;49.506;10.400;2023-01-05T12:19:25;10.67;;;2.70;;
9422;SDS011;65863;49.506;10.400;2023-01-05T12:28:41;14.27;;;2.70;;
9422;SDS011;65863;49.506;10.400;2023-01-05T12:38:40;7.53;;;2.97;;
9422;SDS011;65863;49.506;10.400;2023-01-05T12:41:46;10.37;;;2.60;;
9422;SDS011;65863;49.506;10.400;2023-01-05T12:44:42;7.00;;;2.17;;
9422;SDS011;65863;49.506;10.400;2023-01-05T12:47:50;10.63;;;2.57;;
9422;SDS011;65863;49.506;10.400;2023-01-05T12:56:50;9.43;;;2.47;;
9422;SDS011;65863;49.506;10.400;2023-01-05T12:59:40;8.17;;;2.13;;
9422;SDS011;65863;49.506;10.400;2023-01-05T13:02:42;9.77;;;2.03;;
9422;SDS011;65863;49.506;10.400;2023-01-05T13:05:41;9.77;;;2.73;;
9422;SDS011;65863;49.506;10.400;2023-01-05T13:11:47;7.20;;;2.10;;
9422;SDS011;65863;49.506;10.400;2023-01-05T13:14:37;9.13;;;2.53;;
9422;SDS011;65863;49.506;10.400;2023-01-05T13:17:41;10.97;;;3.20;;
9422;SDS011;65863;49.506;10.400;2023-01-05T13:20:34;8.47;;;2.50;;
9422;SDS011;65863;49.506;10.400;2023-01-05T13:23:48;9.07;;;2.50;;
9422;SDS011;65863;49.506;10.400;2023-01-05T13:26:36;7.67;;;2.43;;
9422;SDS011;65863;49.506;10.400;2023-01-05T13:29:22;10.27;;;2.27;;
9422;SDS011;65863;49.506;10.400;2023-01-05T13:32:24;13.07;;;3.37;;
9422;SDS011;65863;49.506;10.400;2023-01-05T13:45:16;16.03;;;2.80;;
9422;SDS011;65863;49.506;10.400;2023-01-05T13:48:16;10.63;;;2.33;;
9422;SDS011;65863;49.506;10.400;2023-01-05T13:54:45;12.43;;;2.80;;
9422;SDS011;65863;49.506;10.400;2023-01-05T13:57:39;8.77;;;2.30;;
9422;SDS011;65863;49.506;10.400;2023-01-05T14:00:28;9.90;;;2.90;;
9422;SDS011;65863;49.506;10.400;2023-01-05T14:03:27;8.97;;;2.80;;
9422;SDS011;65863;49.506;10.400;2023-01-05T14:06:18;11.77;;;2.70;;
9422;SDS011;65863;49.506;10.400;2023-01-05T14:09:07;11.63;;;3.03;;
9422;SDS011;65863;49.506;10.400;2023-01-05T14:12:30;12.13;;;2.20;;
9422;SDS011;65863;49.506;10.400;2023-01-05T14:15:48;10.27;;;2.70;;
9422;SDS011;65863;49.506;10.400;2023-01-05T14:18:48;12.27;;;3.10;;
9422;SDS011;65863;49.506;10.400;2023-01-05T14:21:57;10.70;;;3.23;;
9422;SDS011;65863;49.506;10.400;2023-01-05T14:24:46;11.67;;;2.40;;
9422;SDS011;65863;49.506;10.400;2023-01-05T14:27:31;10.50;;;2.73;;
9422;SDS011;65863;49.506;10.400;2023-01-05T14:33:58;10.77;;;3.30;;
9422;SDS011;65863;49.506;10.400;2023-01-05T14:36:59;10.57;;;3.30;;
9422;SDS011;65863;49.506;10.400;2023-01-05T14:39:46;8.97;;;2.87;;
9422;SDS011;65863;49.506;10.400;2023-01-05T14:42:33;10.50;;;3.07;;
9422;SDS011;65863;49.506;10.400;2023-01-05T14:45:25;10.43;;;2.67;;
9422;SDS011;65863;49.506;10.400;2023-01-05T14:48:31;10.17;;;2.43;;
9422;SDS011;65863;49.506;10.400;2023-01-05T14:51:24;8.17;;;2.93;;
9422;SDS011;65863;49.506;10.400;2023-01-05T14:54:12;9.47;;;2.37;;
9422;SDS011;65863;49.506;10.400;2023-01-05T15:02:57;8.93;;;2.60;;
9422;SDS011;65863;49.506;10.400;2023-01-05T15:05:58;10.10;;;2.20;;
9422;SDS011;65863;49.506;10.400;2023-01-05T15:09:01;10.43;;;3.07;;
9422;SDS011;65863;49.506;10.400;2023-01-05T15:21:50;11.27;;;3.00;;
9422;SDS011;65863;49.506;10.400;2023-01-05T15:37:16;10.73;;;3.00;;
9422;SDS011;65863;49.506;10.400;2023-01-05T15:40:06;12.07;;;3.00;;
9422;SDS011;65863;49.506;10.400;2023-01-05T15:43:13;8.98;;;2.78;;
9422;SDS011;65863;49.506;10.400;2023-01-05T15:45:59;12.47;;;2.63;;
9422;SDS011;65863;49.506;10.400;2023-01-05T15:48:45;6.27;;;2.17;;
9422;SDS011;65863;49.506;10.400;2023-01-05T15:51:31;10.67;;;2.90;;
9422;SDS011;65863;49.506;10.400;2023-01-05T15:54:20;9.23;;;2.17;;
9422;SDS011;65863;49.506;10.400;2023-01-05T15:57:17;12.73;;;3.17;;
9422;SDS011;65863;49.506;10.400;2023-01-05T16:01:00;15.43;;;3.23;;
9422;SDS011;65863;49.506;10.400;2023-01-05T16:03:19;13.17;;;3.03;;
9422;SDS011;65863;49.506;10.400;2023-01-05T16:06:05;12.83;;;2.40;;
9422;SDS011;65863;49.506;10.400;2023-01-05T16:09:01;12.17;;;3.07;;
9422;SDS011;65863;49.506;10.400;2023-01-05T16:11:57;10.87;;;3.03;;
9422;SDS011;65863;49.506;10.400;2023-01-05T16:14:45;7.90;;;3.20;;
9422;SDS011;65863;49.506;10.400;2023-01-05T16:17:30;15.10;;;3.50;;
9422;SDS011;65863;49.506;10.400;2023-01-05T16:20:20;10.40;;;3.73;;
9422;SDS011;65863;49.506;10.400;2023-01-05T16:23:15;19.07;;;4.57;;
9422;SDS011;65863;49.506;10.400;2023-01-05T16:26:10;16.67;;;6.83;;
9422;SDS011;65863;49.506;10.400;2023-01-05T16:28:58;15.60;;;6.37;;
9422;SDS011;65863;49.506;10.400;2023-01-05T16:31:50;18.60;;;8.23;;
9422;SDS011;65863;49.506;10.400;2023-01-05T16:34:38;13.50;;;5.13;;
9422;SDS011;65863;49.506;10.400;2023-01-05T16:37:22;12.47;;;4.40;;
9422;SDS011;65863;49.506;10.400;2023-01-05T16:40:17;14.63;;;4.17;;
9422;SDS011;65863;49.506;10.400;2023-01-05T16:43:02;17.00;;;6.50;;
9422;SDS011;65863;49.506;10.400;2023-01-05T16:46:06;11.73;;;4.80;;
9422;SDS011;65863;49.506;10.400;2023-01-05T16:49:02;12.93;;;3.77;;
9422;SDS011;65863;49.506;10.400;2023-01-05T16:51:50;14.63;;;4.33;;
9422;SDS011;65863;49.506;10.400;2023-01-05T16:54:37;15.03;;;4.63;;
9422;SDS011;65863;49.506;10.400;2023-01-05T16:57:30;10.60;;;4.03;;
9422;SDS011;65863;49.506;10.400;2023-01-05T17:03:28;17.95;;;5.97;;
9422;SDS011;65863;49.506;10.400;2023-01-05T17:06:21;13.93;;;4.20;;
9422;SDS011;65863;49.506;10.400;2023-01-05T17:09:19;13.33;;;4.00;;
9422;SDS011;65863;49.506;10.400;2023-01-05T17:12:08;18.40;;;5.13;;
9422;SDS011;65863;49.506;10.400;2023-01-05T17:14:55;12.40;;;3.60;;
9422;SDS011;65863;49.506;10.400;2023-01-05T17:17:44;12.67;;;4.13;;
9422;SDS011;65863;49.506;10.400;2023-01-05T17:20:29;15.57;;;4.40;;
9422;SDS011;65863;49.506;10.400;2023-01-05T17:26:31;18.47;;;4.77;;
9422;SDS011;65863;49.506;10.400;2023-01-05T17:29:19;18.93;;;4.70;;
9422;SDS011;65863;49.506;10.400;2023-01-05T17:32:04;18.67;;;4.80;;
9422;SDS011;65863;49.506;10.400;2023-01-05T17:34:48;14.37;;;4.20;;
9422;SDS011;65863;49.506;10.400;2023-01-05T17:37:32;20.67;;;5.57;;
9422;SDS011;65863;49.506;10.400;2023-01-05T17:40:17;19.50;;;4.77;;
9422;SDS011;65863;49.506;10.400;2023-01-05T17:43:03;14.93;;;4.33;;
9422;SDS011;65863;49.506;10.400;2023-01-05T17:45:47;13.50;;;4.20;;
9422;SDS011;65863;49.506;10.400;2023-01-05T17:48:31;12.77;;;4.20;;
9422;SDS011;65863;49.506;10.400;2023-01-05T17:51:15;16.50;;;4.93;;
9422;SDS011;65863;49.506;10.400;2023-01-05T17:53:59;17.77;;;4.67;;
9422;SDS011;65863;49.506;10.400;2023-01-05T17:56:43;13.80;;;3.67;;
9422;SDS011;65863;49.506;10.400;2023-01-05T17:59:27;18.00;;;4.07;;
9422;SDS011;65863;49.506;10.400;2023-01-05T18:02:11;13.63;;;3.77;;
9422;SDS011;65863;49.506;10.400;2023-01-05T18:04:55;19.53;;;4.43;;
9422;SDS011;65863;49.506;10.400;2023-01-05T18:07:39;19.73;;;9.30;;
9422;SDS011;65863;49.506;10.400;2023-01-05T18:10:24;16.83;;;5.20;;
9422;SDS011;65863;49.506;10.400;2023-01-05T18:13:12;15.10;;;4.33;;
9422;SDS011;65863;49.506;10.400;2023-01-05T18:15:57;13.53;;;5.13;;
9422;SDS011;65863;49.506;10.400;2023-01-05T18:18:40;16.90;;;4.43;;
9422;SDS011;65863;49.506;10.400;2023-01-05T18:21:25;15.47;;;4.50;;
9422;SDS011;65863;49.506;10.400;2023-01-05T18:24:09;8.57;;;3.30;;
9422;SDS011;65863;49.506;10.400;2023-01-05T18:26:53;12.10;;;3.67;;
9422;SDS011;65863;49.506;10.400;2023-01-05T18:29:37;15.33;;;4.73;;
9422;SDS011;65863;49.506;10.400;2023-01-05T18:32:23;8.77;;;3.03;;
9422;SDS011;65863;49.506;10.400;2023-01-05T18:35:07;17.10;;;3.63;;
9422;SDS011;65863;49.506;10.400;2023-01-05T18:37:52;15.93;;;4.03;;
9422;SDS011;65863;49.506;10.400;2023-01-05T18:40:37;12.50;;;3.60;;
9422;SDS011;65863;49.506;10.400;2023-01-05T18:43:21;13.87;;;3.53;;
9422;SDS011;65863;49.506;10.400;2023-01-05T18:46:05;16.33;;;3.77;;
9422;SDS011;65863;49.506;10.400;2023-01-05T18:48:52;12.07;;;3.77;;
9422;SDS011;65863;49.506;10.400;2023-01-05T18:51:36;11.47;;;3.43;;
9422;SDS011;65863;49.506;10.400;2023-01-05T18:54:21;12.37;;;3.43;;
9422;SDS011;65863;49.506;10.400;2023-01-05T18:57:05;13.47;;;3.30;;
9422;SDS011;65863;49.506;10.400;2023-01-05T18:59:49;15.73;;;3.50;;